PWSweather.com
Personal Weather Stations
Station Observations

SkegnessGB

Lat: 53.147585, Lon: 0.345774

Elevation: 18

Station Type: Fine Offset WH3080

http://www.skegnessweather.info/

High Low Average
Temperature 68.5°F20.3°C 52.3°F11.3°C 57.5°F14.2°C
Dew Point 63.7°F17.6°C 49.4°F9.7°C 55.4°F13.0°C
Winds 18.4 mph 29.6 kmh 2.4 mph 3.9 kmh 9.0 mph SSE14.5 kmh SSE
Wind Gusts 19.2 mph30.9 kmh 4.2 mph6.8 kmh 11.0 mph17.7 kmh
Humidity 99% 73% 93%
Pressure 29.67 in1004.7 mb 29.23 in989.8 mb -
Precipitation 0.99 in25.1 mm - -
Hour Temp Dew Point Humidity Winds Wind Gusts Pressure Precip Precip Rate Daily Precip Total
12:00 AM 54.0°F12.2°C 51.7°F10.9°C 92% 4.3 mph SSE6.9 kmh SSE 8.4 mph13.5 kmh 29.56 in1001.0 mb 0.11 in2.8 mm 0.00 in0.0 mm 0.11 in2.8 mm
12:10 AM 54.0°F12.2°C 52.0°F11.1°C 93% 5.2 mph S8.4 kmh S 4.9 mph7.9 kmh 29.55 in1000.7 mb 0.15 in3.8 mm 0.24 in6.1 mm 0.15 in3.8 mm
12:20 AM 53.8°F12.1°C 51.8°F11.0°C 93% 5.1 mph NE8.2 kmh NE 7.6 mph12.2 kmh 29.54 in1000.3 mb 0.17 in4.3 mm 0.12 in3.0 mm 0.18 in4.6 mm
12:30 AM 54.0°F12.2°C 52.0°F11.1°C 93% 6.6 mph S10.6 kmh S 9.1 mph14.6 kmh 29.52 in999.7 mb 0.19 in4.8 mm 0.12 in3.0 mm 0.21 in5.3 mm
12:40 AM 53.8°F12.1°C 52.1°F11.2°C 94% 8.3 mph SSE13.4 kmh SSE 10.1 mph16.3 kmh 29.52 in999.7 mb 0.19 in4.8 mm 0.00 in0.0 mm 0.24 in6.1 mm
12:50 AM 53.6°F12.0°C 51.9°F11.1°C 94% 6.8 mph SE10.9 kmh SE 9.1 mph14.6 kmh 29.50 in999.0 mb 0.19 in4.8 mm 0.00 in0.0 mm 0.26 in6.6 mm
01:00 AM 53.8°F12.1°C 52.1°F11.2°C 94% 6.4 mph ENE10.3 kmh ENE 8.4 mph13.5 kmh 29.49 in998.6 mb 0.17 in4.3 mm 0.00 in0.0 mm 0.27 in6.9 mm
01:10 AM 54.1°F12.3°C 52.7°F11.5°C 95% 5.6 mph SSE9.0 kmh SSE 7.6 mph12.2 kmh 29.48 in998.3 mb 0.14 in3.6 mm 0.00 in0.0 mm 0.30 in7.6 mm
01:20 AM 54.5°F12.5°C 53.1°F11.7°C 95% 6.7 mph SSW10.8 kmh SSW 11.8 mph19.0 kmh 29.47 in998.0 mb 0.14 in3.6 mm 0.00 in0.0 mm 0.32 in8.1 mm
01:30 AM 54.7°F12.6°C 53.3°F11.8°C 95% 6.5 mph ESE10.5 kmh ESE 10.8 mph17.4 kmh 29.45 in997.3 mb 0.12 in3.0 mm 0.00 in0.0 mm 0.33 in8.4 mm
01:40 AM 54.9°F12.7°C 53.7°F12.1°C 96% 6.6 mph E10.6 kmh E 10.8 mph17.4 kmh 29.45 in997.3 mb 0.11 in2.8 mm 0.00 in0.0 mm 0.34 in8.6 mm
01:50 AM 55.2°F12.9°C 54.1°F12.3°C 96% 7.8 mph ESE12.6 kmh ESE 9.1 mph14.6 kmh 29.44 in997.0 mb 0.09 in2.3 mm 0.00 in0.0 mm 0.35 in8.9 mm
02:00 AM 55.8°F13.2°C 54.9°F12.7°C 97% 13.3 mph S21.4 kmh S 11.8 mph19.0 kmh 29.42 in996.3 mb 0.09 in2.3 mm 0.00 in0.0 mm 0.38 in9.7 mm
02:10 AM 56.1°F13.4°C 55.6°F13.1°C 98% 12.5 mph S20.1 kmh S 11.8 mph19.0 kmh 29.41 in995.9 mb 0.09 in2.3 mm 0.00 in0.0 mm 0.39 in9.9 mm
02:20 AM 56.7°F13.7°C 56.4°F13.6°C 99% 16.8 mph SE27.0 kmh SE 16.7 mph26.9 kmh 29.40 in995.6 mb 0.07 in1.8 mm 0.00 in0.0 mm 0.39 in9.9 mm
02:30 AM 56.8°F13.8°C 56.6°F13.7°C 99% 15.5 mph SSE24.9 kmh SSE 15.0 mph24.1 kmh 29.39 in995.3 mb 0.06 in1.5 mm 0.00 in0.0 mm 0.39 in9.9 mm
02:40 AM 56.8°F13.8°C 56.6°F13.7°C 99% 15.7 mph S25.3 kmh S 15.0 mph24.1 kmh 29.39 in995.3 mb 0.06 in1.5 mm 0.00 in0.0 mm 0.40 in10.2 mm
02:50 AM 57.0°F13.9°C 56.7°F13.7°C 99% 18.4 mph SW29.6 kmh SW 16.0 mph25.7 kmh 29.38 in994.9 mb 0.05 in1.3 mm 0.00 in0.0 mm 0.40 in10.2 mm
03:00 AM 57.2°F14.0°C 56.9°F13.8°C 99% 15.5 mph S24.9 kmh S 15.0 mph24.1 kmh 29.38 in994.9 mb 0.02 in0.5 mm 0.00 in0.0 mm 0.40 in10.2 mm
03:10 AM 57.4°F14.1°C 57.1°F13.9°C 99% 14.3 mph ESE23.0 kmh ESE 13.3 mph21.4 kmh 29.37 in994.6 mb 0.01 in0.3 mm 0.00 in0.0 mm 0.40 in10.2 mm
03:20 AM 57.6°F14.2°C 57.3°F14.1°C 99% 15.7 mph S25.3 kmh S 17.5 mph28.2 kmh 29.36 in994.2 mb 0.02 in0.5 mm 0.06 in1.5 mm 0.41 in10.4 mm
03:30 AM 57.6°F14.2°C 57.3°F14.1°C 99% 16.9 mph S27.2 kmh S 18.5 mph29.8 kmh 29.36 in994.2 mb 0.02 in0.5 mm 0.00 in0.0 mm 0.41 in10.4 mm
03:40 AM 57.7°F14.3°C 57.5°F14.2°C 99% 14.9 mph SSE24.0 kmh SSE 15.0 mph24.1 kmh 29.35 in993.9 mb 0.01 in0.3 mm 0.00 in0.0 mm 0.41 in10.4 mm
03:50 AM 57.7°F14.3°C 57.5°F14.2°C 99% 13.3 mph SE21.4 kmh SE 16.0 mph25.7 kmh 29.34 in993.6 mb 0.01 in0.3 mm 0.00 in0.0 mm 0.41 in10.4 mm
04:00 AM 57.7°F14.3°C 57.5°F14.2°C 99% 16.2 mph S26.1 kmh S 16.7 mph26.9 kmh 29.34 in993.6 mb 0.01 in0.3 mm 0.00 in0.0 mm 0.41 in10.4 mm
04:10 AM 57.7°F14.3°C 57.5°F14.2°C 99% 17.9 mph SE28.8 kmh SE 16.0 mph25.7 kmh 29.33 in993.2 mb 0.01 in0.3 mm 0.00 in0.0 mm 0.41 in10.4 mm
04:20 AM 57.7°F14.3°C 57.5°F14.2°C 99% 15.6 mph SSE25.1 kmh SSE 13.3 mph21.4 kmh 29.32 in992.9 mb 0.00 in0.0 mm 0.00 in0.0 mm 0.41 in10.4 mm
04:30 AM 57.7°F14.3°C 57.5°F14.2°C 99% 15.3 mph SSE24.6 kmh SSE 16.0 mph25.7 kmh 29.32 in992.9 mb 0.00 in0.0 mm 0.00 in0.0 mm 0.41 in10.4 mm
04:40 AM 57.7°F14.3°C 57.5°F14.2°C 99% 16.8 mph SE27.0 kmh SE 19.2 mph30.9 kmh 29.32 in992.9 mb 0.00 in0.0 mm 0.00 in0.0 mm 0.41 in10.4 mm
04:50 AM 57.9°F14.4°C 57.6°F14.2°C 99% 15.9 mph S25.6 kmh S 16.0 mph25.7 kmh 29.31 in992.6 mb 0.00 in0.0 mm 0.00 in0.0 mm 0.41 in10.4 mm
05:00 AM 57.9°F14.4°C 57.6°F14.2°C 99% 15.0 mph S24.1 kmh S 16.7 mph26.9 kmh 29.32 in992.9 mb 0.00 in0.0 mm 0.00 in0.0 mm 0.41 in10.4 mm
05:10 AM 58.1°F14.5°C 57.8°F14.3°C 99% 15.2 mph S24.5 kmh S 17.5 mph28.2 kmh 29.31 in992.6 mb 0.00 in0.0 mm 0.00 in0.0 mm 0.41 in10.4 mm
05:20 AM 58.1°F14.5°C 57.8°F14.3°C 99% 13.4 mph SSE21.6 kmh SSE 17.5 mph28.2 kmh 29.31 in992.6 mb 0.00 in0.0 mm 0.00 in0.0 mm 0.41 in10.4 mm
05:30 AM 58.1°F14.5°C 57.8°F14.3°C 99% 14.4 mph S23.2 kmh S 13.3 mph21.4 kmh 29.30 in992.2 mb 0.00 in0.0 mm 0.00 in0.0 mm 0.41 in10.4 mm
05:40 AM 58.1°F14.5°C 57.8°F14.3°C 99% 16.9 mph S27.2 kmh S 17.5 mph28.2 kmh 29.30 in992.2 mb 0.00 in0.0 mm 0.00 in0.0 mm 0.41 in10.4 mm
05:50 AM 58.1°F14.5°C 57.8°F14.3°C 99% 15.1 mph SSE24.3 kmh SSE 16.7 mph26.9 kmh 29.29 in991.9 mb 0.00 in0.0 mm 0.00 in0.0 mm 0.41 in10.4 mm
06:00 AM 58.1°F14.5°C 57.8°F14.3°C 99% 12.1 mph SSE19.5 kmh SSE 14.3 mph23.0 kmh 29.29 in991.9 mb 0.00 in0.0 mm 0.00 in0.0 mm 0.41 in10.4 mm
06:10 AM 58.1°F14.5°C 57.8°F14.3°C 99% 13.8 mph SE22.2 kmh SE 12.5 mph20.1 kmh 29.29 in991.9 mb 0.00 in0.0 mm 0.00 in0.0 mm 0.41 in10.4 mm
06:20 AM 58.3°F14.6°C 58.0°F14.4°C 99% 14.1 mph S22.7 kmh S 14.3 mph23.0 kmh 29.29 in991.9 mb 0.00 in0.0 mm 0.00 in0.0 mm 0.41 in10.4 mm
06:30 AM 58.3°F14.6°C 58.0°F14.4°C 99% 13.4 mph SSE21.6 kmh SSE 14.3 mph23.0 kmh 29.28 in991.5 mb 0.00 in0.0 mm 0.00 in0.0 mm 0.41 in10.4 mm
06:40 AM 58.5°F14.7°C 57.9°F14.4°C 98% 14.5 mph S23.3 kmh S 13.3 mph21.4 kmh 29.29 in991.9 mb 0.00 in0.0 mm 0.00 in0.0 mm 0.41 in10.4 mm
06:50 AM 58.3°F14.6°C 57.7°F14.3°C 98% 10.8 mph S17.4 kmh S 13.3 mph21.4 kmh 29.28 in991.5 mb 0.00 in0.0 mm 0.00 in0.0 mm 0.41 in10.4 mm
07:00 AM 58.5°F14.7°C 57.6°F14.2°C 97% 10.6 mph S17.1 kmh S 10.8 mph17.4 kmh 29.28 in991.5 mb 0.00 in0.0 mm 0.00 in0.0 mm 0.41 in10.4 mm
07:10 AM 58.5°F14.7°C 57.6°F14.2°C 97% 8.9 mph S14.3 kmh S 9.1 mph14.6 kmh 29.28 in991.5 mb 0.00 in0.0 mm 0.00 in0.0 mm 0.41 in10.4 mm
07:20 AM 58.5°F14.7°C 57.6°F14.2°C 97% 8.5 mph S13.7 kmh S 9.1 mph14.6 kmh 29.28 in991.5 mb 0.00 in0.0 mm 0.00 in0.0 mm 0.41 in10.4 mm
07:30 AM 58.6°F14.8°C 57.8°F14.3°C 97% 9.6 mph S15.4 kmh S 9.1 mph14.6 kmh 29.27 in991.2 mb 0.00 in0.0 mm 0.00 in0.0 mm 0.41 in10.4 mm
07:40 AM 58.6°F14.8°C 57.8°F14.3°C 97% 9.5 mph SSW15.3 kmh SSW 9.1 mph14.6 kmh 29.28 in991.5 mb 0.00 in0.0 mm 0.00 in0.0 mm 0.41 in10.4 mm
07:50 AM 58.6°F14.8°C 57.8°F14.3°C 97% 8.4 mph SSW13.5 kmh SSW 10.8 mph17.4 kmh 29.27 in991.2 mb 0.00 in0.0 mm 0.00 in0.0 mm 0.41 in10.4 mm
08:00 AM 58.6°F14.8°C 57.8°F14.3°C 97% 8.9 mph S14.3 kmh S 9.1 mph14.6 kmh 29.27 in991.2 mb 0.00 in0.0 mm 0.00 in0.0 mm 0.41 in10.4 mm
08:10 AM 58.6°F14.8°C 57.8°F14.3°C 97% 7.8 mph SE12.6 kmh SE 10.1 mph16.3 kmh 29.27 in991.2 mb 0.00 in0.0 mm 0.00 in0.0 mm 0.41 in10.4 mm
08:20 AM 58.8°F14.9°C 58.0°F14.4°C 97% 7.6 mph SSE12.2 kmh SSE 10.1 mph16.3 kmh 29.27 in991.2 mb 0.00 in0.0 mm 0.00 in0.0 mm 0.41 in10.4 mm
08:30 AM 59.0°F15.0°C 58.2°F14.6°C 97% 9.1 mph SSW14.6 kmh SSW 9.1 mph14.6 kmh 29.27 in991.2 mb 0.01 in0.3 mm 0.06 in1.5 mm 0.43 in10.9 mm
08:40 AM 59.0°F15.0°C 58.4°F14.7°C 98% 9.4 mph SW15.1 kmh SW 10.1 mph16.3 kmh 29.27 in991.2 mb 0.01 in0.3 mm 0.00 in0.0 mm 0.43 in10.9 mm
08:50 AM 59.2°F15.1°C 58.6°F14.8°C 98% 10.2 mph S16.4 kmh S 10.8 mph17.4 kmh 29.27 in991.2 mb 0.01 in0.3 mm 0.00 in0.0 mm 0.43 in10.9 mm
09:00 AM 59.5°F15.3°C 59.0°F15.0°C 98% 9.8 mph S15.8 kmh S 12.5 mph20.1 kmh 29.27 in991.2 mb 0.01 in0.3 mm 0.00 in0.0 mm 0.43 in10.9 mm
09:10 AM 59.9°F15.5°C 59.6°F15.3°C 99% 8.7 mph S14.0 kmh S 11.8 mph19.0 kmh 29.26 in990.9 mb 0.01 in0.3 mm 0.00 in0.0 mm 0.43 in10.9 mm
09:20 AM 60.4°F15.8°C 60.2°F15.7°C 99% 8.3 mph SSW13.4 kmh SSW 11.8 mph19.0 kmh 29.26 in990.9 mb 0.01 in0.3 mm 0.00 in0.0 mm 0.43 in10.9 mm
09:30 AM 63.0°F17.2°C 62.4°F16.9°C 98% 8.8 mph S14.2 kmh S 10.8 mph17.4 kmh 29.26 in990.9 mb 0.00 in0.0 mm 0.00 in0.0 mm 0.43 in10.9 mm
09:40 AM 64.6°F18.1°C 63.7°F17.6°C 97% 9.5 mph SW15.3 kmh SW 10.8 mph17.4 kmh 29.26 in990.9 mb 0.00 in0.0 mm 0.00 in0.0 mm 0.43 in10.9 mm
09:50 AM 66.0°F18.9°C 63.0°F17.2°C 90% 9.6 mph SSW15.4 kmh SSW 10.1 mph16.3 kmh 29.26 in990.9 mb 0.00 in0.0 mm 0.00 in0.0 mm 0.43 in10.9 mm
10:00 AM 65.7°F18.7°C 59.7°F15.4°C 81% 10.3 mph ESE16.6 kmh ESE 9.1 mph14.6 kmh 29.26 in990.9 mb 0.00 in0.0 mm 0.00 in0.0 mm 0.43 in10.9 mm
10:10 AM 65.1°F18.4°C 58.4°F14.7°C 79% 10.0 mph SE16.1 kmh SE 9.1 mph14.6 kmh 29.26 in990.9 mb 0.00 in0.0 mm 0.00 in0.0 mm 0.43 in10.9 mm
10:20 AM 64.2°F17.9°C 58.3°F14.6°C 81% 8.9 mph S14.3 kmh S 12.5 mph20.1 kmh 29.26 in990.9 mb 0.00 in0.0 mm 0.00 in0.0 mm 0.43 in10.9 mm
10:30 AM 63.9°F17.7°C 58.3°F14.6°C 82% 7.4 mph SW11.9 kmh SW 8.4 mph13.5 kmh 29.25 in990.5 mb 0.00 in0.0 mm 0.00 in0.0 mm 0.43 in10.9 mm
10:40 AM 64.0°F17.8°C 58.4°F14.7°C 82% 7.6 mph SW12.2 kmh SW 10.1 mph16.3 kmh 29.26 in990.9 mb 0.00 in0.0 mm 0.00 in0.0 mm 0.43 in10.9 mm
10:50 AM 64.4°F18.0°C 59.1°F15.1°C 83% 6.4 mph SSW10.3 kmh SSW 9.1 mph14.6 kmh 29.25 in990.5 mb 0.00 in0.0 mm 0.00 in0.0 mm 0.43 in10.9 mm
11:00 AM 64.6°F18.1°C 58.6°F14.8°C 81% 7.7 mph S12.4 kmh S 10.1 mph16.3 kmh 29.25 in990.5 mb 0.00 in0.0 mm 0.00 in0.0 mm 0.43 in10.9 mm
11:10 AM 67.1°F19.5°C 60.7°F15.9°C 80% 8.3 mph S13.4 kmh S 10.8 mph17.4 kmh 29.25 in990.5 mb 0.00 in0.0 mm 0.00 in0.0 mm 0.43 in10.9 mm
11:20 AM 66.6°F19.2°C 59.1°F15.1°C 77% 7.8 mph SSW12.6 kmh SSW 10.1 mph16.3 kmh 29.24 in990.2 mb 0.00 in0.0 mm 0.00 in0.0 mm 0.43 in10.9 mm
11:30 AM 66.7°F19.3°C 59.7°F15.4°C 78% 10.3 mph S16.6 kmh S 10.8 mph17.4 kmh 29.25 in990.5 mb 0.00 in0.0 mm 0.00 in0.0 mm 0.43 in10.9 mm
11:40 AM 67.5°F19.7°C 58.9°F14.9°C 74% 8.1 mph SSE13.0 kmh SSE 10.8 mph17.4 kmh 29.24 in990.2 mb 0.01 in0.3 mm 0.06 in1.5 mm 0.44 in11.2 mm
11:50 AM 68.5°F20.3°C 59.5°F15.3°C 73% 7.9 mph S12.7 kmh S 11.8 mph19.0 kmh 29.24 in990.2 mb 0.01 in0.3 mm 0.00 in0.0 mm 0.44 in11.2 mm
12:00 PM 66.9°F19.4°C 58.0°F14.4°C 73% 8.1 mph WSW13.0 kmh WSW 10.1 mph16.3 kmh 29.24 in990.2 mb 0.01 in0.3 mm 0.00 in0.0 mm 0.44 in11.2 mm
12:10 PM 67.1°F19.5°C 59.3°F15.2°C 76% 7.2 mph SSW11.6 kmh SSW 7.6 mph12.2 kmh 29.24 in990.2 mb 0.01 in0.3 mm 0.00 in0.0 mm 0.44 in11.2 mm
12:20 PM 68.2°F20.1°C 59.2°F15.1°C 73% 8.1 mph SSW13.0 kmh SSW 10.1 mph16.3 kmh 29.23 in989.8 mb 0.01 in0.3 mm 0.00 in0.0 mm 0.44 in11.2 mm
12:30 PM 66.6°F19.2°C 58.0°F14.4°C 74% 7.2 mph SSW11.6 kmh SSW 10.8 mph17.4 kmh 29.24 in990.2 mb 0.01 in0.3 mm 0.00 in0.0 mm 0.44 in11.2 mm
12:40 PM 64.4°F18.0°C 58.4°F14.7°C 81% 9.0 mph SW14.5 kmh SW 16.0 mph25.7 kmh 29.24 in990.2 mb 0.08 in2.0 mm 0.42 in10.7 mm 0.52 in13.2 mm
12:50 PM 63.1°F17.3°C 58.6°F14.8°C 85% 6.3 mph W10.1 kmh W 9.1 mph14.6 kmh 29.24 in990.2 mb 0.13 in3.3 mm 0.30 in7.6 mm 0.57 in14.5 mm
01:00 PM 63.5°F17.5°C 59.6°F15.3°C 87% 4.4 mph WSW7.1 kmh WSW 6.6 mph10.6 kmh 29.24 in990.2 mb 0.13 in3.3 mm 0.00 in0.0 mm 0.57 in14.5 mm
01:10 PM 63.7°F17.6°C 60.7°F15.9°C 90% 6.8 mph SSW10.9 kmh SSW 12.5 mph20.1 kmh 29.24 in990.2 mb 0.13 in3.3 mm 0.00 in0.0 mm 0.57 in14.5 mm
01:20 PM 63.5°F17.5°C 60.5°F15.8°C 90% 6.4 mph SSW10.3 kmh SSW 8.4 mph13.5 kmh 29.24 in990.2 mb 0.13 in3.3 mm 0.00 in0.0 mm 0.57 in14.5 mm
01:30 PM 63.7°F17.6°C 60.1°F15.6°C 88% 7.9 mph SW12.7 kmh SW 9.1 mph14.6 kmh 29.24 in990.2 mb 0.13 in3.3 mm 0.00 in0.0 mm 0.57 in14.5 mm
01:40 PM 61.7°F16.5°C 57.8°F14.3°C 87% 5.0 mph N8.0 kmh N 8.4 mph13.5 kmh 29.25 in990.5 mb 0.05 in1.3 mm 0.00 in0.0 mm 0.57 in14.5 mm
01:50 PM 59.4°F15.2°C 55.2°F12.9°C 86% 7.0 mph NNE11.3 kmh NNE 8.4 mph13.5 kmh 29.26 in990.9 mb 0.00 in0.0 mm 0.00 in0.0 mm 0.57 in14.5 mm
02:00 PM 58.8°F14.9°C 55.3°F12.9°C 88% 4.9 mph NNE7.9 kmh NNE 8.4 mph13.5 kmh 29.25 in990.5 mb 0.00 in0.0 mm 0.00 in0.0 mm 0.57 in14.5 mm
02:10 PM 58.5°F14.7°C 55.5°F13.1°C 90% 4.2 mph NNW6.8 kmh NNW 5.9 mph9.5 kmh 29.26 in990.9 mb 0.00 in0.0 mm 0.00 in0.0 mm 0.57 in14.5 mm
02:20 PM 57.9°F14.4°C 55.3°F12.9°C 91% 5.3 mph NNE8.5 kmh NNE 5.9 mph9.5 kmh 29.26 in990.9 mb 0.07 in1.8 mm 0.42 in10.7 mm 0.64 in16.3 mm
02:30 PM 57.4°F14.1°C 55.1°F12.8°C 92% 4.8 mph N7.7 kmh N 5.9 mph9.5 kmh 29.27 in991.2 mb 0.18 in4.6 mm 0.66 in16.8 mm 0.74 in18.8 mm
02:40 PM 57.2°F14.0°C 55.2°F12.9°C 93% 5.4 mph NE8.7 kmh NE 8.4 mph13.5 kmh 29.27 in991.2 mb 0.25 in6.4 mm 0.42 in10.7 mm 0.81 in20.6 mm
02:50 PM 57.0°F13.9°C 55.3°F12.9°C 94% 5.6 mph NNE9.0 kmh NNE 8.4 mph13.5 kmh 29.27 in991.2 mb 0.26 in6.6 mm 0.06 in1.5 mm 0.83 in21.1 mm
03:00 PM 57.0°F13.9°C 55.6°F13.1°C 95% 5.8 mph NE9.3 kmh NE 7.6 mph12.2 kmh 29.27 in991.2 mb 0.27 in6.9 mm 0.01 in0.3 mm 0.84 in21.3 mm
03:10 PM 56.8°F13.8°C 55.7°F13.2°C 96% 7.3 mph NNE11.7 kmh NNE 11.8 mph19.0 kmh 29.27 in991.2 mb 0.28 in7.1 mm 0.06 in1.5 mm 0.85 in21.6 mm
03:20 PM 56.7°F13.7°C 55.5°F13.1°C 96% 8.6 mph N13.8 kmh N 10.1 mph16.3 kmh 29.28 in991.5 mb 0.22 in5.6 mm 0.00 in0.0 mm 0.86 in21.8 mm
03:30 PM 56.5°F13.6°C 55.6°F13.1°C 97% 9.9 mph NNE15.9 kmh NNE 10.8 mph17.4 kmh 29.28 in991.5 mb 0.14 in3.6 mm 0.00 in0.0 mm 0.89 in22.6 mm
03:40 PM 56.3°F13.5°C 55.5°F13.1°C 97% 8.9 mph N14.3 kmh N 12.5 mph20.1 kmh 29.29 in991.9 mb 0.08 in2.0 mm 0.00 in0.0 mm 0.90 in22.9 mm
03:50 PM 56.1°F13.4°C 55.3°F12.9°C 97% 10.4 mph NNE16.7 kmh NNE 12.5 mph20.1 kmh 29.29 in991.9 mb 0.08 in2.0 mm 0.00 in0.0 mm 0.91 in23.1 mm
04:00 PM 55.8°F13.2°C 55.2°F12.9°C 98% 13.0 mph NNE20.9 kmh NNE 16.0 mph25.7 kmh 29.31 in992.6 mb 0.08 in2.0 mm 0.00 in0.0 mm 0.92 in23.4 mm
04:10 PM 55.6°F13.1°C 55.0°F12.8°C 98% 16.0 mph E25.7 kmh E 13.3 mph21.4 kmh 29.32 in992.9 mb 0.09 in2.3 mm 0.06 in1.5 mm 0.94 in23.9 mm
04:20 PM 55.2°F12.9°C 54.7°F12.6°C 98% 11.9 mph NNE19.2 kmh NNE 17.5 mph28.2 kmh 29.32 in992.9 mb 0.09 in2.3 mm 0.00 in0.0 mm 0.96 in24.4 mm
04:30 PM 54.9°F12.7°C 54.3°F12.4°C 98% 13.3 mph N21.4 kmh N 19.2 mph30.9 kmh 29.33 in993.2 mb 0.08 in2.0 mm 0.00 in0.0 mm 0.97 in24.6 mm
04:40 PM 54.5°F12.5°C 53.9°F12.2°C 98% 14.4 mph NNE23.2 kmh NNE 15.0 mph24.1 kmh 29.34 in993.6 mb 0.07 in1.8 mm 0.00 in0.0 mm 0.97 in24.6 mm
04:50 PM 54.7°F12.6°C 54.1°F12.3°C 98% 13.7 mph NE22.0 kmh NE 14.3 mph23.0 kmh 29.36 in994.2 mb 0.07 in1.8 mm 0.00 in0.0 mm 0.98 in24.9 mm
05:00 PM 54.9°F12.7°C 54.3°F12.4°C 98% 11.3 mph N18.2 kmh N 15.0 mph24.1 kmh 29.37 in994.6 mb 0.06 in1.5 mm 0.00 in0.0 mm 0.98 in24.9 mm
05:10 PM 54.9°F12.7°C 54.3°F12.4°C 98% 8.0 mph NNE12.9 kmh NNE 11.8 mph19.0 kmh 29.38 in994.9 mb 0.04 in1.0 mm 0.00 in0.0 mm 0.98 in24.9 mm
05:20 PM 54.9°F12.7°C 54.3°F12.4°C 98% 9.3 mph NE15.0 kmh NE 10.1 mph16.3 kmh 29.38 in994.9 mb 0.02 in0.5 mm 0.00 in0.0 mm 0.98 in24.9 mm
05:30 PM 54.9°F12.7°C 54.3°F12.4°C 98% 9.9 mph NE15.9 kmh NE 13.3 mph21.4 kmh 29.39 in995.3 mb 0.01 in0.3 mm 0.00 in0.0 mm 0.98 in24.9 mm
05:40 PM 54.7°F12.6°C 54.1°F12.3°C 98% 9.5 mph E15.3 kmh E 10.8 mph17.4 kmh 29.41 in995.9 mb 0.01 in0.3 mm 0.00 in0.0 mm 0.98 in24.9 mm
05:50 PM 54.7°F12.6°C 54.1°F12.3°C 98% 9.6 mph NNE15.4 kmh NNE 14.3 mph23.0 kmh 29.41 in995.9 mb 0.00 in0.0 mm 0.00 in0.0 mm 0.98 in24.9 mm
06:00 PM 54.5°F12.5°C 53.7°F12.1°C 97% 9.2 mph NE14.8 kmh NE 11.8 mph19.0 kmh 29.43 in996.6 mb 0.00 in0.0 mm 0.00 in0.0 mm 0.98 in24.9 mm
06:10 PM 54.3°F12.4°C 53.5°F11.9°C 97% 9.7 mph N15.6 kmh N 11.8 mph19.0 kmh 29.44 in997.0 mb 0.00 in0.0 mm 0.00 in0.0 mm 0.98 in24.9 mm
06:20 PM 54.1°F12.3°C 53.0°F11.7°C 96% 7.8 mph NE12.6 kmh NE 10.1 mph16.3 kmh 29.44 in997.0 mb 0.00 in0.0 mm 0.00 in0.0 mm 0.98 in24.9 mm
06:30 PM 54.1°F12.3°C 52.7°F11.5°C 95% 6.5 mph E10.5 kmh E 8.4 mph13.5 kmh 29.45 in997.3 mb 0.00 in0.0 mm 0.00 in0.0 mm 0.98 in24.9 mm
06:40 PM 54.0°F12.2°C 52.6°F11.4°C 95% 6.3 mph NE10.1 kmh NE 9.1 mph14.6 kmh 29.46 in997.6 mb 0.00 in0.0 mm 0.00 in0.0 mm 0.98 in24.9 mm
06:50 PM 53.8°F12.1°C 52.1°F11.2°C 94% 5.8 mph NW9.3 kmh NW 9.1 mph14.6 kmh 29.47 in998.0 mb 0.00 in0.0 mm 0.00 in0.0 mm 0.98 in24.9 mm
07:00 PM 53.8°F12.1°C 51.8°F11.0°C 93% 6.8 mph N10.9 kmh N 8.4 mph13.5 kmh 29.48 in998.3 mb 0.00 in0.0 mm 0.00 in0.0 mm 0.98 in24.9 mm
07:10 PM 53.8°F12.1°C 51.5°F10.8°C 92% 5.5 mph NE8.9 kmh NE 5.9 mph9.5 kmh 29.49 in998.6 mb 0.00 in0.0 mm 0.00 in0.0 mm 0.98 in24.9 mm
07:20 PM 53.6°F12.0°C 51.3°F10.7°C 92% 4.4 mph SW7.1 kmh SW 6.6 mph10.6 kmh 29.50 in999.0 mb 0.00 in0.0 mm 0.00 in0.0 mm 0.98 in24.9 mm
07:30 PM 53.6°F12.0°C 51.0°F10.6°C 91% 4.9 mph WSW7.9 kmh WSW 6.6 mph10.6 kmh 29.51 in999.3 mb 0.00 in0.0 mm 0.00 in0.0 mm 0.98 in24.9 mm
07:40 PM 53.8°F12.1°C 51.2°F10.7°C 91% 5.4 mph W8.7 kmh W 5.9 mph9.5 kmh 29.52 in999.7 mb 0.00 in0.0 mm 0.00 in0.0 mm 0.98 in24.9 mm
07:50 PM 53.8°F12.1°C 50.9°F10.5°C 90% 4.8 mph S7.7 kmh S 9.1 mph14.6 kmh 29.52 in999.7 mb 0.00 in0.0 mm 0.00 in0.0 mm 0.98 in24.9 mm
08:00 PM 53.8°F12.1°C 50.9°F10.5°C 90% 6.4 mph E10.3 kmh E 10.1 mph16.3 kmh 29.53 in1000.0 mb 0.00 in0.0 mm 0.00 in0.0 mm 0.98 in24.9 mm
08:10 PM 53.6°F12.0°C 50.1°F10.1°C 88% 4.0 mph NE6.4 kmh NE 4.9 mph7.9 kmh 29.53 in1000.0 mb 0.00 in0.0 mm 0.00 in0.0 mm 0.98 in24.9 mm
08:20 PM 53.4°F11.9°C 50.9°F10.5°C 91% 6.0 mph S9.7 kmh S 6.6 mph10.6 kmh 29.54 in1000.3 mb 0.00 in0.0 mm 0.00 in0.0 mm 0.98 in24.9 mm
08:30 PM 53.2°F11.8°C 50.4°F10.2°C 90% 5.7 mph SSW9.2 kmh SSW 8.4 mph13.5 kmh 29.55 in1000.7 mb 0.00 in0.0 mm 0.00 in0.0 mm 0.98 in24.9 mm
08:40 PM 53.1°F11.7°C 50.2°F10.1°C 90% 6.4 mph SSE10.3 kmh SSE 6.6 mph10.6 kmh 29.55 in1000.7 mb 0.00 in0.0 mm 0.00 in0.0 mm 0.98 in24.9 mm
08:50 PM 53.1°F11.7°C 50.2°F10.1°C 90% 6.0 mph WSW9.7 kmh WSW 8.4 mph13.5 kmh 29.55 in1000.7 mb 0.00 in0.0 mm 0.00 in0.0 mm 0.98 in24.9 mm
09:00 PM 53.1°F11.7°C 50.2°F10.1°C 90% 5.9 mph SSW9.5 kmh SSW 10.1 mph16.3 kmh 29.57 in1001.4 mb 0.00 in0.0 mm 0.00 in0.0 mm 0.98 in24.9 mm
09:10 PM 53.1°F11.7°C 50.2°F10.1°C 90% 6.5 mph S10.5 kmh S 8.4 mph13.5 kmh 29.57 in1001.4 mb 0.00 in0.0 mm 0.00 in0.0 mm 0.98 in24.9 mm
09:20 PM 52.9°F11.6°C 50.0°F10.0°C 90% 4.5 mph SE7.2 kmh SE 6.6 mph10.6 kmh 29.58 in1001.7 mb 0.01 in0.3 mm 0.06 in1.5 mm 0.99 in25.1 mm
09:30 PM 52.7°F11.5°C 49.8°F9.9°C 90% 5.7 mph SSW9.2 kmh SSW 7.6 mph12.2 kmh 29.59 in1002.0 mb 0.01 in0.3 mm 0.00 in0.0 mm 0.99 in25.1 mm
09:40 PM 52.5°F11.4°C 49.7°F9.8°C 90% 5.0 mph SSW8.0 kmh SSW 10.8 mph17.4 kmh 29.59 in1002.0 mb 0.01 in0.3 mm 0.00 in0.0 mm 0.99 in25.1 mm
09:50 PM 52.3°F11.3°C 49.5°F9.7°C 90% 4.7 mph NNW7.6 kmh NNW 6.6 mph10.6 kmh 29.60 in1002.4 mb 0.01 in0.3 mm 0.00 in0.0 mm 0.99 in25.1 mm
10:00 PM 52.3°F11.3°C 49.5°F9.7°C 90% 5.0 mph WSW8.0 kmh WSW 9.1 mph14.6 kmh 29.61 in1002.7 mb 0.01 in0.3 mm 0.00 in0.0 mm 0.99 in25.1 mm
10:10 PM 52.3°F11.3°C 49.5°F9.7°C 90% 3.3 mph NE5.3 kmh NE 5.9 mph9.5 kmh 29.61 in1002.7 mb 0.01 in0.3 mm 0.00 in0.0 mm 0.99 in25.1 mm
10:20 PM 52.5°F11.4°C 49.7°F9.8°C 90% 5.3 mph S8.5 kmh S 6.6 mph10.6 kmh 29.62 in1003.0 mb 0.00 in0.0 mm 0.00 in0.0 mm 0.99 in25.1 mm
10:30 PM 52.7°F11.5°C 49.8°F9.9°C 90% 5.4 mph SW8.7 kmh SW 6.6 mph10.6 kmh 29.62 in1003.0 mb 0.00 in0.0 mm 0.00 in0.0 mm 0.99 in25.1 mm
10:40 PM 52.9°F11.6°C 50.0°F10.0°C 90% 5.1 mph SSW8.2 kmh SSW 10.1 mph16.3 kmh 29.63 in1003.4 mb 0.00 in0.0 mm 0.00 in0.0 mm 0.99 in25.1 mm
10:50 PM 52.9°F11.6°C 50.0°F10.0°C 90% 4.8 mph S7.7 kmh S 5.9 mph9.5 kmh 29.64 in1003.7 mb 0.00 in0.0 mm 0.00 in0.0 mm 0.99 in25.1 mm
11:00 PM 52.9°F11.6°C 50.0°F10.0°C 90% 4.8 mph S7.7 kmh S 5.9 mph9.5 kmh 29.65 in1004.1 mb 0.00 in0.0 mm 0.00 in0.0 mm 0.64 in16.3 mm
11:10 PM 53.2°F11.8°C 50.4°F10.2°C 90% 6.1 mph S9.8 kmh S 9.1 mph14.6 kmh 29.65 in1004.1 mb 0.00 in0.0 mm 0.00 in0.0 mm 0.64 in16.3 mm
11:20 PM 53.4°F11.9°C 50.6°F10.3°C 90% 5.9 mph WSW9.5 kmh WSW 6.6 mph10.6 kmh 29.65 in1004.1 mb 0.00 in0.0 mm 0.00 in0.0 mm 0.64 in16.3 mm
11:30 PM 53.4°F11.9°C 50.3°F10.2°C 89% 3.5 mph SE5.6 kmh SE 6.6 mph10.6 kmh 29.65 in1004.1 mb 0.00 in0.0 mm 0.00 in0.0 mm 0.64 in16.3 mm
11:40 PM 53.1°F11.7°C 49.6°F9.8°C 88% 3.1 mph S5.0 kmh S 5.9 mph9.5 kmh 29.66 in1004.4 mb 0.00 in0.0 mm 0.00 in0.0 mm 0.64 in16.3 mm
11:50 PM 52.9°F11.6°C 49.4°F9.7°C 88% 2.4 mph SW3.9 kmh SW 4.2 mph6.8 kmh 29.67 in1004.7 mb 0.00 in0.0 mm 0.00 in0.0 mm 0.64 in16.3 mm